Time;durP1;ratioP1;P1;durP2;ratioP2;P2;SDS_P1;SDS_P2;PMS_P1;PMS_P2;Temp;Humidity;BMP_temperature;BMP_pressure;BME280_temperature;BME280_humidity;BME280_pressure;Samples;Min_cycle;Max_cycle;Signal;HPM_P1;HPM_P2
2021/09/30 00:02:15;;;;;;;4.53;0.90;;;;;;;9.66;100.00;98481.50;4899218;29;20100;-79
2021/09/30 00:04:43;;;;;;;2.75;1.00;;;;;;;9.61;100.00;98476.16;4900414;29;20056;-78
2021/09/30 00:07:10;;;;;;;4.45;0.80;;;;;;;9.57;100.00;98473.25;4899948;29;20059;-80
2021/09/30 00:09:39;;;;;;;2.35;0.88;;;;;;;9.59;100.00;98476.47;4916574;29;20052;-79
2021/09/30 00:12:11;;;;;;;7.28;1.10;;;;;;;9.57;100.00;98478.66;4899657;29;20071;-79
2021/09/30 00:34:18;;;;;;;2.30;0.90;;;;;;;9.65;100.00;98498.84;4898388;29;20091;-79
2021/09/30 00:39:48;;;;;;;2.88;0.80;;;;;;;9.78;100.00;98506.28;4919820;29;20588;-79
2021/09/30 00:45:29;;;;;;;3.33;0.60;;;;;;;9.71;100.00;98501.19;4888214;29;20127;-79
2021/09/30 00:48:08;;;;;;;4.05;0.60;;;;;;;9.49;100.00;98486.59;4933653;23;20052;-80
2021/09/30 01:46:52;;;;;;;3.22;1.00;;;;;;;9.36;100.00;98515.91;4901573;29;20133;-81
2021/09/30 02:24:01;;;;;;;4.53;1.30;;;;;;;9.35;100.00;98548.59;4897061;29;20047;-80
2021/09/30 03:00:23;;;;;;;2.85;0.95;;;;;;;9.20;100.00;98562.25;4897516;29;20044;-82
2021/09/30 03:03:01;;;;;;;4.38;1.20;;;;;;;9.08;100.00;98578.03;4881520;29;20055;-81
2021/09/30 03:05:33;;;;;;;3.80;1.05;;;;;;;9.06;100.00;98588.31;4881624;29;20240;-82
2021/09/30 03:08:03;;;;;;;5.13;1.15;;;;;;;9.04;100.00;98585.06;4881067;29;20416;-81
2021/09/30 03:10:34;;;;;;;3.97;1.30;;;;;;;9.16;100.00;98590.94;4880129;29;20489;-79
2021/09/30 03:13:04;;;;;;;4.35;1.10;;;;;;;9.04;100.00;98587.75;4895314;29;20048;-81
2021/09/30 03:15:43;;;;;;;6.38;1.50;;;;;;;9.13;100.00;98594.19;4879703;29;20136;-81
2021/09/30 03:24:17;;;;;;;3.92;1.40;;;;;;;8.87;100.00;98584.66;4896189;29;20135;-81
2021/09/30 03:26:56;;;;;;;3.90;1.55;;;;;;;8.87;100.00;98598.16;4892443;29;20053;-81
2021/09/30 03:29:38;;;;;;;5.35;1.30;;;;;;;8.89;100.00;98604.06;4892830;29;20037;-80
2021/09/30 03:32:05;;;;;;;5.47;1.35;;;;;;;9.00;100.00;98600.22;4893132;29;20080;-82
2021/09/30 03:34:34;;;;;;;3.13;1.42;;;;;;;8.93;100.00;98599.75;4877817;29;20036;-81
2021/09/30 03:37:03;;;;;;;2.42;1.23;;;;;;;8.85;100.00;98587.63;4862511;29;20131;-82
2021/09/30 03:39:30;;;;;;;3.45;1.35;;;;;;;8.78;100.00;98598.75;4895679;29;20055;-81
2021/09/30 03:41:58;;;;;;;6.32;1.40;;;;;;;8.89;100.00;98612.16;4894438;29;20055;-81
2021/09/30 03:44:27;;;;;;;5.30;1.50;;;;;;;8.85;100.00;98593.03;4877600;29;20052;-81
2021/09/30 03:46:54;;;;;;;2.53;1.27;;;;;;;8.97;100.00;98606.19;4877185;29;20273;-81
2021/09/30 03:49:33;;;;;;;5.65;1.23;;;;;;;8.93;100.00;98608.63;4877120;29;20084;-81
2021/09/30 03:52:12;;;;;;;4.15;1.10;;;;;;;9.01;100.00;98608.03;4876950;29;20048;-82
2021/09/30 03:59:48;;;;;;;3.15;1.20;;;;;;;9.13;100.00;98611.22;4896905;29;20181;-81
2021/09/30 04:02:15;;;;;;;5.07;1.60;;;;;;;9.00;100.00;98603.75;4880469;29;20060;-81
2021/09/30 04:04:42;;;;;;;3.50;1.42;;;;;;;9.10;100.00;98610.97;4880244;29;20423;-81
2021/09/30 04:07:09;;;;;;;3.17;1.50;;;;;;;9.02;100.00;98611.53;4880759;29;20047;-80
2021/09/30 04:09:38;;;;;;;10.20;1.50;;;;;;;8.95;100.00;98614.56;4897475;29;20149;-81
2021/09/30 04:12:08;;;;;;;4.05;1.50;;;;;;;8.99;100.00;98614.81;4865260;29;20044;-79
2021/09/30 04:14:35;;;;;;;4.07;1.55;;;;;;;8.94;100.00;98618.34;4880125;29;20565;-79
2021/09/30 04:17:03;;;;;;;3.38;1.30;;;;;;;9.05;100.00;98621.78;4897904;29;20049;-79
2021/09/30 04:19:30;;;;;;;5.07;1.80;;;;;;;8.93;100.00;98624.03;4878832;29;20053;-81
2021/09/30 04:21:57;;;;;;;5.28;1.48;;;;;;;8.90;100.00;98632.69;4863370;29;20076;-81
2021/09/30 04:24:25;;;;;;;3.75;1.08;;;;;;;8.86;100.00;98623.53;4879589;29;20506;-80
2021/09/30 04:26:55;;;;;;;2.15;1.33;;;;;;;8.87;100.00;98619.75;4864655;29;20149;-78
2021/09/30 04:29:23;;;;;;;4.38;1.30;;;;;;;8.90;100.00;98624.59;4879928;29;20396;-81
2021/09/30 04:31:51;;;;;;;3.95;1.10;;;;;;;8.91;100.00;98623.50;4881584;29;20143;-80
2021/09/30 04:34:18;;;;;;;5.10;1.38;;;;;;;8.94;100.00;98642.66;4895196;29;20055;-80
2021/09/30 04:36:46;;;;;;;8.35;1.38;;;;;;;8.87;100.00;98644.06;4870449;29;20321;-81
2021/09/30 04:39:15;;;;;;;1.80;1.10;;;;;;;8.91;100.00;98648.59;4865135;29;20120;-79
2021/09/30 04:41:44;;;;;;;4.95;1.60;;;;;;;8.88;100.00;98649.16;4870573;29;20071;-81
2021/09/30 04:44:14;;;;;;;2.67;1.50;;;;;;;8.89;100.00;98655.38;4857080;29;20053;-80
2021/09/30 04:46:42;;;;;;;2.95;1.20;;;;;;;8.74;100.00;98657.09;4866127;29;20045;-79
2021/09/30 04:49:08;;;;;;;3.45;1.40;;;;;;;8.71;100.00;98654.13;4861688;29;20144;-80
2021/09/30 04:51:35;;;;;;;8.52;1.60;;;;;;;8.77;100.00;98661.91;4877816;29;20049;-79
2021/09/30 04:54:02;;;;;;;7.13;1.20;;;;;;;8.80;100.00;98665.94;4861644;29;20053;-81
2021/09/30 04:56:29;;;;;;;4.68;1.65;;;;;;;8.79;100.00;98672.44;4876558;29;20097;-80
2021/09/30 04:58:58;;;;;;;4.43;1.50;;;;;;;8.73;100.00;98671.66;4870894;29;20192;-79
2021/09/30 05:01:25;;;;;;;5.65;1.33;;;;;;;8.75;100.00;98674.88;4898104;29;20522;-81
2021/09/30 05:03:52;;;;;;;5.85;1.40;;;;;;;8.66;100.00;98670.34;4882979;29;20067;-80
2021/09/30 05:06:19;;;;;;;4.20;1.63;;;;;;;8.65;100.00;98666.84;4882975;29;20132;-80
2021/09/30 05:08:48;;;;;;;3.50;1.42;;;;;;;8.69;100.00;98665.22;4914687;29;20068;-80
2021/09/30 05:11:16;;;;;;;5.82;1.50;;;;;;;8.76;100.00;98656.78;4898144;29;20056;-80
2021/09/30 05:13:43;;;;;;;4.35;1.52;;;;;;;8.75;100.00;98655.16;4898565;29;20265;-79
2021/09/30 05:16:13;;;;;;;4.82;1.35;;;;;;;8.85;100.00;98660.53;4898538;29;20044;-81
2021/09/30 05:18:46;;;;;;;7.10;1.50;;;;;;;8.79;100.00;98675.16;4898047;29;20059;-81
2021/09/30 05:21:16;;;;;;;5.75;1.80;;;;;;;8.86;100.00;98688.34;4883598;29;20092;-80
2021/09/30 05:23:44;;;;;;;6.93;1.20;;;;;;;8.96;100.00;98672.06;4898282;29;20148;-82
2021/09/30 05:26:11;;;;;;;5.85;1.48;;;;;;;8.84;100.00;98671.59;4899096;29;20080;-80
2021/09/30 05:28:37;;;;;;;4.15;1.20;;;;;;;8.96;100.00;98669.38;4902715;29;20515;-80
2021/09/30 05:31:05;;;;;;;4.05;1.40;;;;;;;8.96;100.00;98669.38;4881124;29;20084;-80
2021/09/30 05:33:32;;;;;;;2.38;0.80;;;;;;;8.90;100.00;98670.50;4880713;29;20098;-80
2021/09/30 05:35:59;;;;;;;8.15;2.00;;;;;;;8.87;100.00;98674.56;4881750;29;20044;-81
2021/09/30 05:38:26;;;;;;;4.55;1.38;;;;;;;8.92;100.00;98674.53;4897429;29;20139;-81
2021/09/30 05:40:54;;;;;;;3.80;1.13;;;;;;;8.97;100.00;98677.22;4882633;29;20504;-80
2021/09/30 05:43:31;;;;;;;5.57;1.45;;;;;;;8.92;100.00;98673.72;4898151;29;20100;-80
2021/09/30 05:45:58;;;;;;;7.53;1.70;;;;;;;9.07;100.00;98670.94;4898456;29;20338;-81
2021/09/30 05:48:27;;;;;;;4.47;1.30;;;;;;;8.95;100.00;98689.38;4882537;29;20175;-79
2021/09/30 05:50:56;;;;;;;3.17;1.30;;;;;;;9.01;100.00;98677.44;4883074;29;20078;-80
2021/09/30 05:53:23;;;;;;;5.40;1.63;;;;;;;8.99;100.00;98676.91;4884861;29;20083;-82
2021/09/30 05:55:50;;;;;;;3.17;1.40;;;;;;;9.15;100.00;98684.66;4882704;29;20044;-81
2021/09/30 05:58:17;;;;;;;6.25;1.83;;;;;;;9.11;100.00;98685.50;4897781;29;20104;-81
2021/09/30 06:14:11;;;;;;;5.00;1.85;;;;;;;9.47;100.00;98686.91;4895826;29;20048;-80
2021/09/30 06:16:44;;;;;;;4.00;2.00;;;;;;;9.45;100.00;98699.84;4912702;29;20048;-80
2021/09/30 06:19:27;;;;;;;4.32;1.67;;;;;;;9.59;100.00;98708.97;4882306;29;20048;-78
2021/09/30 06:21:54;;;;;;;8.32;1.80;;;;;;;9.59;100.00;98708.97;4880203;29;20145;-80
2021/09/30 06:24:22;;;;;;;5.63;1.80;;;;;;;9.62;100.00;98708.41;4911989;29;20047;-81
2021/09/30 06:26:50;;;;;;;4.60;1.80;;;;;;;9.66;100.00;98717.53;4912549;29;20066;-81
2021/09/30 06:29:18;;;;;;;4.25;1.80;;;;;;;9.78;100.00;98717.97;4910883;29;20052;-79
2021/09/30 06:31:45;;;;;;;5.85;2.40;;;;;;;9.83;100.00;98723.34;4894960;29;20040;-80
2021/09/30 06:34:11;;;;;;;6.28;1.80;;;;;;;9.78;100.00;98709.88;4912786;29;20048;-80
2021/09/30 06:36:38;;;;;;;4.45;1.70;;;;;;;9.82;100.00;98721.75;4895342;29;20051;-83
2021/09/30 06:39:05;;;;;;;7.32;1.90;;;;;;;9.87;100.00;98723.59;4913680;29;20060;-81
2021/09/30 06:41:32;;;;;;;6.50;1.90;;;;;;;9.87;100.00;98712.78;4896152;29;20060;-80
2021/09/30 06:44:16;;;;;;;3.50;1.90;;;;;;;9.91;100.00;98724.66;4899885;29;20058;-80
2021/09/30 06:46:43;;;;;;;6.30;2.27;;;;;;;9.97;100.00;98712.69;4912113;23;20065;-79
2021/09/30 06:49:10;;;;;;;8.10;1.80;;;;;;;10.07;100.00;98728.00;4880517;29;20608;-78
2021/09/30 06:51:37;;;;;;;6.80;2.20;;;;;;;10.14;100.00;98729.34;4881546;29;20058;-79
2021/09/30 06:54:05;;;;;;;7.35;2.20;;;;;;;10.16;100.00;98729.88;4882542;29;20489;-78
2021/09/30 06:56:32;;;;;;;9.10;2.50;;;;;;;10.38;100.00;98732.06;4881847;29;20115;-79
2021/09/30 06:59:07;;;;;;;9.82;2.55;;;;;;;10.27;100.00;98725.94;4882090;29;20512;-78
2021/09/30 07:01:35;;;;;;;4.50;2.25;;;;;;;10.42;100.00;98722.31;4880990;29;20050;-78
2021/09/30 07:04:06;;;;;;;8.35;2.60;;;;;;;10.38;100.00;98732.88;4881562;29;20509;-79
2021/09/30 07:06:34;;;;;;;8.75;1.98;;;;;;;10.43;100.00;98732.03;4881576;29;20055;-81
2021/09/30 07:09:00;;;;;;;5.75;2.10;;;;;;;10.51;100.00;98732.22;4881859;29;20147;-80
2021/09/30 07:11:27;;;;;;;6.65;2.45;;;;;;;10.67;100.00;98737.44;4881740;29;20051;-81
2021/09/30 07:13:54;;;;;;;9.90;2.20;;;;;;;10.85;100.00;98736.69;4881506;29;20111;-81
2021/09/30 07:16:21;;;;;;;5.72;2.05;;;;;;;10.79;100.00;98743.28;4881998;29;20048;-80
2021/09/30 07:18:48;;;;;;;6.25;1.98;;;;;;;10.91;100.00;98740.97;4881687;29;20108;-81
2021/09/30 07:21:14;;;;;;;5.28;2.00;;;;;;;11.07;100.00;98740.47;4881778;29;20048;-80
2021/09/30 07:23:41;;;;;;;5.28;1.83;;;;;;;11.15;100.00;98739.00;4896640;29;20056;-80
2021/09/30 07:26:09;;;;;;;6.68;1.80;;;;;;;11.21;100.00;98740.56;4881326;29;20072;-80
2021/09/30 07:28:37;;;;;;;7.10;2.15;;;;;;;11.27;100.00;98747.53;4881215;29;20080;-80
2021/09/30 07:31:05;;;;;;;5.22;1.63;;;;;;;11.33;100.00;98756.41;4882851;29;20131;-81
2021/09/30 07:33:33;;;;;;;6.47;2.10;;;;;;;11.33;100.00;98753.72;4884509;29;20509;-80
2021/09/30 07:36:00;;;;;;;5.63;1.60;;;;;;;11.27;100.00;98750.25;4900676;29;20060;-81
2021/09/30 07:38:28;;;;;;;5.70;1.83;;;;;;;11.21;100.00;98746.81;4885431;29;20115;-80
2021/09/30 07:40:55;;;;;;;5.18;1.33;;;;;;;11.33;100.00;98742.88;4885598;29;20067;-79
2021/09/30 08:25:00;;;;;;;6.37;1.63;;;;;;;12.23;100.00;98792.25;4917834;29;20047;-80
2021/09/30 08:27:27;;;;;;;7.18;1.55;;;;;;;12.20;100.00;98780.06;4886832;29;20497;-80
2021/09/30 08:29:55;;;;;;;6.18;1.88;;;;;;;12.42;100.00;98796.50;4884974;29;20119;-79
2021/09/30 08:32:22;;;;;;;11.25;1.63;;;;;;;12.43;100.00;98792.69;4884643;29;20084;-79
2021/09/30 08:34:49;;;;;;;6.68;1.75;;;;;;;12.62;100.00;98794.53;4884262;29;20478;-79
2021/09/30 08:37:16;;;;;;;9.43;1.75;;;;;;;12.51;100.00;98802.06;4883966;29;20048;-79
2021/09/30 08:39:43;;;;;;;7.68;1.48;;;;;;;12.52;100.00;98806.38;4884021;29;20044;-78
2021/09/30 08:42:09;;;;;;;4.28;1.25;;;;;;;12.70;100.00;98807.44;4883635;29;20044;-79
2021/09/30 08:44:36;;;;;;;6.97;1.42;;;;;;;12.52;100.00;98809.09;4884531;29;20139;-80
2021/09/30 08:47:04;;;;;;;5.65;1.80;;;;;;;12.54;100.00;98806.91;4883689;29;20096;-78
2021/09/30 08:49:34;;;;;;;13.00;1.80;;;;;;;12.65;100.00;98816.47;4884161;29;20159;-78
2021/09/30 08:52:01;;;;;;;5.10;1.30;;;;;;;13.01;100.00;98814.69;4884360;29;20056;-78
2021/09/30 08:54:28;;;;;;;7.32;1.85;;;;;;;12.90;100.00;98812.50;4884467;29;20104;-81
2021/09/30 08:56:55;;;;;;;5.40;2.00;;;;;;;13.17;100.00;98823.41;4884153;29;20071;-81
2021/09/30 08:59:27;;;;;;;4.80;1.73;;;;;;;12.96;100.00;98808.56;4884755;29;20425;-79
2021/09/30 09:02:10;;;;;;;4.20;1.20;;;;;;;13.24;100.00;98823.00;4883649;29;20147;-78
2021/09/30 09:04:55;;;;;;;5.32;1.42;;;;;;;13.20;100.00;98814.63;4885056;29;20063;-81
2021/09/30 09:07:31;;;;;;;8.70;1.40;;;;;;;13.37;100.00;98816.75;4883693;29;20064;-78
2021/09/30 09:10:02;;;;;;;4.65;1.50;;;;;;;13.59;100.00;98827.69;4883807;29;20159;-79
2021/09/30 09:12:33;;;;;;;8.93;2.17;;;;;;;13.59;100.00;98833.94;4883168;29;20048;-77
2021/09/30 09:15:01;;;;;;;4.53;1.08;;;;;;;13.52;100.00;98816.44;4883603;29;20056;-80
2021/09/30 09:17:28;;;;;;;3.38;1.08;;;;;;;13.67;100.00;98818.81;4883946;29;20473;-78
2021/09/30 09:20:00;;;;;;;3.78;1.33;;;;;;;13.67;100.00;98811.47;4883805;29;20465;-80
2021/09/30 09:22:32;;;;;;;9.10;1.27;;;;;;;13.86;100.00;98818.66;4883807;29;20080;-79
2021/09/30 09:25:15;;;;;;;5.22;1.20;;;;;;;13.72;100.00;98827.69;4883809;29;20060;-80
2021/09/30 09:27:54;;;;;;;6.78;1.10;;;;;;;14.16;100.00;98832.38;4883601;29;20048;-80
2021/09/30 09:30:45;;;;;;;5.90;1.40;;;;;;;13.99;100.00;98821.31;4884337;29;20150;-79
2021/09/30 09:33:16;;;;;;;6.10;1.73;;;;;;;13.93;100.00;98825.31;4885281;29;20048;-80
2021/09/30 09:36:09;;;;;;;6.55;1.00;;;;;;;14.24;100.00;98817.22;4885675;29;20135;-81
2021/09/30 09:38:42;;;;;;;3.70;1.00;;;;;;;14.65;100.00;98826.00;4886802;29;20048;-80
2021/09/30 09:41:19;;;;;;;6.75;1.15;;;;;;;14.46;100.00;98813.69;4883103;29;20120;-78
2021/09/30 09:43:48;;;;;;;4.60;1.05;;;;;;;14.90;100.00;98808.97;4883135;29;20052;-80
2021/09/30 09:46:18;;;;;;;8.40;1.00;;;;;;;15.28;100.00;98809.25;4882844;29;20052;-80
2021/09/30 09:49:02;;;;;;;4.55;1.00;;;;;;;15.62;100.00;98805.03;4882986;29;20052;-80
2021/09/30 09:51:37;;;;;;;11.00;1.75;;;;;;;15.45;100.00;98811.25;4882355;29;20147;-81
2021/09/30 09:54:10;;;;;;;5.25;1.33;;;;;;;15.18;100.00;98820.47;4898643;29;20150;-80
2021/09/30 09:56:38;;;;;;;5.43;1.02;;;;;;;14.36;100.00;98809.31;4882870;29;20044;-79
2021/09/30 09:59:05;;;;;;;2.60;0.90;;;;;;;14.23;100.00;98830.03;4883502;29;20151;-78
2021/09/30 10:01:43;;;;;;;4.97;1.00;;;;;;;15.71;92.81;98819.50;4899624;29;20101;-80
2021/09/30 10:04:12;;;;;;;5.78;1.00;;;;;;;16.27;80.42;98821.28;4882384;29;20048;-80
2021/09/30 10:06:41;;;;;;;3.53;0.77;;;;;;;15.17;91.04;98816.16;4883069;29;20044;-79
2021/09/30 10:09:11;;;;;;;7.10;0.88;;;;;;;15.98;81.74;98809.09;4882970;29;20048;-79
2021/09/30 10:11:38;;;;;;;5.30;0.95;;;;;;;14.60;95.20;98815.25;4882791;29;20296;-79
2021/09/30 10:14:07;;;;;;;5.55;1.33;;;;;;;14.17;100.00;98814.09;4881975;29;20058;-81
2021/09/30 10:16:35;;;;;;;4.63;1.10;;;;;;;13.56;100.00;98820.94;4882339;29;20576;-78
2021/09/30 10:19:06;;;;;;;3.95;1.00;;;;;;;14.31;100.00;98815.69;4885212;29;20080;-80
2021/09/30 10:21:34;;;;;;;3.72;1.00;;;;;;;16.79;79.54;98799.03;4888502;29;20083;-81
2021/09/30 10:24:12;;;;;;;4.47;0.88;;;;;;;18.21;58.51;98797.22;4887027;29;20051;-79
2021/09/30 10:26:51;;;;;;;2.95;0.82;;;;;;;19.06;58.07;98797.47;4903118;29;20470;-79
2021/09/30 10:29:42;;;;;;;5.43;0.98;;;;;;;19.41;54.54;98786.88;4886793;29;20436;-80
2021/09/30 10:32:10;;;;;;;3.95;0.90;;;;;;;20.09;53.95;98796.81;4885366;29;20048;-79
2021/09/30 10:34:40;;;;;;;11.40;0.93;;;;;;;19.43;54.14;98790.88;4887592;29;20146;-80
2021/09/30 10:37:35;;;;;;;4.53;0.90;;;;;;;19.35;52.06;98791.75;4885435;29;20566;-80
2021/09/30 10:40:19;;;;;;;3.72;0.93;;;;;;;19.69;51.30;98796.00;4900635;29;20055;-79
2021/09/30 10:42:58;;;;;;;5.85;1.20;;;;;;;18.93;50.57;98802.16;4887281;29;20052;-81
2021/09/30 10:45:39;;;;;;;5.50;1.00;;;;;;;19.54;50.46;98794.72;4887656;29;20056;-81
2021/09/30 10:48:27;;;;;;;3.75;0.95;;;;;;;20.05;47.82;98797.84;4883458;29;20402;-80
2021/09/30 10:50:56;;;;;;;4.30;0.98;;;;;;;20.58;48.84;98791.91;4882569;29;20082;-79
2021/09/30 10:53:45;;;;;;;7.10;0.80;;;;;;;20.31;48.81;98781.75;4882321;29;20088;-79
2021/09/30 10:56:26;;;;;;;5.25;1.00;;;;;;;20.09;48.18;98798.75;4882307;29;20044;-80
2021/09/30 10:59:00;;;;;;;4.43;0.90;;;;;;;20.49;48.22;98786.56;4882584;29;20056;-80
2021/09/30 11:01:27;;;;;;;4.00;1.27;;;;;;;20.77;47.28;98791.25;4881890;29;20058;-79
2021/09/30 11:03:59;;;;;;;3.65;0.90;;;;;;;20.97;45.43;98781.94;4882133;29;20052;-80
2021/09/30 11:06:27;;;;;;;4.25;1.02;;;;;;;21.03;45.81;98791.53;4882214;29;20100;-79
2021/09/30 11:09:12;;;;;;;2.55;1.00;;;;;;;21.47;44.38;98787.50;4883055;29;20096;-80
2021/09/30 11:11:38;;;;;;;4.45;1.00;;;;;;;20.98;44.97;98792.56;4883420;29;20070;-80
2021/09/30 11:14:07;;;;;;;5.68;0.90;;;;;;;20.68;44.86;98793.34;4898317;29;20044;-79
2021/09/30 11:16:35;;;;;;;3.08;0.80;;;;;;;21.26;44.78;98776.00;4883041;29;20709;-80
2021/09/30 11:19:03;;;;;;;3.72;0.70;;;;;;;21.00;44.05;98778.47;4882754;29;20048;-80
2021/09/30 11:21:30;;;;;;;3.58;0.80;;;;;;;20.32;44.66;98792.38;4897612;29;20549;-79
2021/09/30 11:24:05;;;;;;;7.97;0.90;;;;;;;21.46;42.13;98782.38;4880566;29;20056;-79
2021/09/30 11:26:52;;;;;;;4.85;0.80;;;;;;;21.15;43.13;98779.63;4882729;29;20059;-81
2021/09/30 11:29:19;;;;;;;4.07;0.70;;;;;;;20.44;45.89;98777.78;4872809;29;20087;-80
2021/09/30 11:31:58;;;;;;;4.47;0.80;;;;;;;21.26;44.13;98776.00;4883162;29;20075;-81
2021/09/30 11:34:28;;;;;;;3.72;0.90;;;;;;;23.40;40.71;98770.47;4882726;29;20146;-82
2021/09/30 11:37:07;;;;;;;2.50;0.80;;;;;;;23.94;39.88;98769.25;4882542;29;20052;-80
2021/09/30 11:39:34;;;;;;;3.70;0.82;;;;;;;25.22;37.93;98755.63;4883265;29;20116;-82
2021/09/30 11:42:01;;;;;;;4.35;0.90;;;;;;;24.61;37.47;98753.47;4882818;29;20508;-81
2021/09/30 11:44:28;;;;;;;3.03;0.73;;;;;;;24.89;37.12;98753.78;4881632;29;20060;-80
2021/09/30 11:46:57;;;;;;;3.35;0.80;;;;;;;21.33;41.54;98756.88;4881151;29;20054;-78
2021/09/30 11:49:25;;;;;;;4.65;0.77;;;;;;;22.10;40.46;98752.31;4881975;29;20048;-82
2021/09/30 11:51:57;;;;;;;3.92;0.75;;;;;;;22.20;39.90;98759.19;4882074;29;20083;-80
2021/09/30 11:54:33;;;;;;;2.92;0.75;;;;;;;18.35;46.26;98758.56;4881563;29;20521;-79
2021/09/30 11:57:01;;;;;;;2.25;0.75;;;;;;;20.33;42.68;98754.69;4881889;29;20064;-81
2021/09/30 11:59:32;;;;;;;3.45;0.80;;;;;;;18.95;44.65;98750.44;4881529;29;20150;-79
2021/09/30 12:02:04;;;;;;;5.05;0.90;;;;;;;20.34;43.79;98748.00;4896588;29;20100;-80
2021/09/30 12:04:45;;;;;;;6.05;1.00;;;;;;;20.50;42.88;98746.91;4880328;29;20474;-79
2021/09/30 12:07:18;;;;;;;3.47;0.80;;;;;;;19.20;45.86;98751.28;4881212;29;20115;-79
2021/09/30 12:09:46;;;;;;;3.40;0.90;;;;;;;17.98;47.27;98750.19;4881441;29;20091;-80
2021/09/30 12:12:14;;;;;;;2.65;0.70;;;;;;;17.22;50.45;98755.06;4880891;29;20052;-80
2021/09/30 12:14:46;;;;;;;2.30;0.80;;;;;;;16.40;51.83;98761.00;4896589;29;20048;-79
2021/09/30 12:17:15;;;;;;;3.20;0.70;;;;;;;15.91;56.05;98756.88;4882835;29;20521;-80
2021/09/30 12:19:48;;;;;;;2.25;0.70;;;;;;;15.39;59.85;98757.94;4884330;29;20052;-79
2021/09/30 12:22:26;;;;;;;5.90;0.80;;;;;;;15.19;65.64;98761.25;4884621;29;20461;-78
2021/09/30 12:24:58;;;;;;;5.18;0.80;;;;;;;15.26;66.20;98762.41;4885681;29;20187;-79
2021/09/30 12:27:30;;;;;;;4.32;0.90;;;;;;;14.98;68.48;98752.84;4884879;29;20139;-78
2021/09/30 12:30:10;;;;;;;4.30;0.80;;;;;;;14.99;71.49;98773.56;4885082;29;20080;-80
2021/09/30 12:32:39;;;;;;;4.00;0.85;;;;;;;14.98;74.92;98764.56;4884807;29;20083;-79
2021/09/30 12:35:11;;;;;;;5.60;1.00;;;;;;;15.05;75.37;98758.66;4885940;29;20104;-80
2021/09/30 12:37:44;;;;;;;2.38;0.60;;;;;;;15.16;76.77;98767.34;4885313;29;20191;-80
2021/09/30 12:40:21;;;;;;;3.67;0.82;;;;;;;14.94;75.36;98752.66;4884676;29;20354;-81
2021/09/30 12:42:57;;;;;;;4.57;0.77;;;;;;;14.81;79.86;98753.59;4885853;29;20100;-80
2021/09/30 12:45:24;;;;;;;3.40;0.70;;;;;;;14.95;80.74;98750.75;4902996;29;20537;-80
2021/09/30 12:48:00;;;;;;;7.30;0.90;;;;;;;14.98;80.52;98748.22;4897483;23;20112;-79
2021/09/30 12:50:35;;;;;;;3.03;0.70;;;;;;;15.09;87.06;98751.44;4883428;29;20083;-79
2021/09/30 12:53:03;;;;;;;4.50;0.90;;;;;;;15.09;76.12;98745.19;4879558;29;20048;-78
2021/09/30 12:55:31;;;;;;;3.78;0.90;;;;;;;15.27;66.46;98755.84;4879905;29;20187;-78
2021/09/30 12:58:00;;;;;;;4.45;0.70;;;;;;;15.38;66.00;98737.22;4875677;29;20045;-79
2021/09/30 13:00:32;;;;;;;5.53;0.90;;;;;;;15.20;65.75;98744.56;4860494;29;20076;-80
2021/09/30 13:03:14;;;;;;;2.05;0.60;;;;;;;15.76;69.48;98749.16;4876992;29;20140;-81
2021/09/30 13:05:48;;;;;;;3.78;0.80;;;;;;;16.36;65.94;98734.63;4876229;29;20088;-78
2021/09/30 13:08:53;;;;;;;4.35;0.70;;;;;;;16.52;61.47;98739.25;4877102;29;20053;-79
2021/09/30 13:11:23;;;;;;;6.18;0.75;;;;;;;16.20;66.83;98745.28;4837052;29;20067;-78
2021/09/30 13:14:25;;;;;;;5.07;0.90;;;;;;;16.27;67.85;98737.38;4840014;29;20556;-80
2021/09/30 13:16:55;;;;;;;5.00;0.90;;;;;;;17.92;57.72;98745.25;4849717;29;20089;-78
2021/09/30 13:19:41;;;;;;;3.50;0.80;;;;;;;19.00;52.52;98732.94;4860297;29;20160;-78
2021/09/30 13:22:20;;;;;;;4.95;1.00;;;;;;;19.48;51.44;98724.72;4876208;29;20045;-80
2021/09/30 13:24:51;;;;;;;1.90;0.68;;;;;;;21.52;45.45;98734.91;4858802;29;20148;-79
2021/09/30 13:27:21;;;;;;;4.70;0.80;;;;;;;21.05;45.43;98725.88;4860811;29;20144;-80
2021/09/30 13:29:50;;;;;;;5.15;0.88;;;;;;;18.60;50.69;98730.06;4874888;29;20074;-80
2021/09/30 13:32:21;;;;;;;2.78;0.85;;;;;;;18.11;55.52;98725.56;4861208;29;20063;-79
2021/09/30 13:34:48;;;;;;;3.45;0.90;;;;;;;19.66;48.71;98725.25;4875093;29;20140;-79
2021/09/30 13:37:14;;;;;;;7.00;1.00;;;;;;;21.28;44.23;98726.06;4880188;29;20100;-79
2021/09/30 13:39:42;;;;;;;2.03;0.80;;;;;;;22.62;40.82;98710.34;4885719;29;20536;-79
2021/09/30 13:42:09;;;;;;;3.25;0.60;;;;;;;19.49;46.12;98731.00;4864221;29;20077;-79
2021/09/30 13:44:36;;;;;;;3.55;0.63;;;;;;;17.71;48.72;98728.00;4860277;29;20375;-81
2021/09/30 13:47:04;;;;;;;2.13;0.70;;;;;;;16.30;54.86;98731.28;4876994;29;20053;-78
2021/09/30 13:49:31;;;;;;;4.00;0.70;;;;;;;15.59;58.28;98732.78;4875358;29;20080;-80
2021/09/30 13:51:57;;;;;;;4.97;0.82;;;;;;;16.75;59.88;98726.97;4876144;29;20185;-81
2021/09/30 13:54:24;;;;;;;2.83;0.60;;;;;;;16.55;56.14;98732.34;4859763;29;20084;-80
2021/09/30 13:56:51;;;;;;;2.53;0.75;;;;;;;16.18;57.26;98731.16;4874830;29;20045;-80
2021/09/30 13:59:18;;;;;;;2.45;0.60;;;;;;;16.12;59.85;98722.31;4860110;29;20416;-79
2021/09/30 14:02:06;;;;;;;5.28;0.80;;;;;;;15.37;60.07;98728.25;4874703;29;20109;-80
2021/09/30 14:04:35;;;;;;;3.72;0.70;;;;;;;17.08;53.96;98727.13;4860388;29;20083;-80
2021/09/30 14:07:05;;;;;;;2.33;0.63;;;;;;;18.85;48.83;98714.44;4875906;29;20556;-80
2021/09/30 14:09:33;;;;;;;3.15;0.90;;;;;;;20.61;44.37;98711.41;4876166;29;20055;-80
2021/09/30 14:12:02;;;;;;;3.58;0.70;;;;;;;20.94;40.91;98714.59;4875871;29;20056;-81
2021/09/30 14:14:28;;;;;;;2.75;0.55;;;;;;;20.33;40.85;98708.72;4859808;29;20072;-83
2021/09/30 14:16:56;;;;;;;2.05;0.55;;;;;;;20.05;38.86;98716.19;4859866;29;20112;-81
2021/09/30 14:19:25;;;;;;;2.05;0.55;;;;;;;20.74;37.37;98712.94;4864781;29;20045;-80
2021/09/30 14:21:53;;;;;;;2.25;0.50;;;;;;;20.47;38.06;98711.03;4875116;29;20578;-80
2021/09/30 14:24:21;;;;;;;2.03;0.60;;;;;;;19.13;41.78;98712.59;4860095;29;20052;-81
2021/09/30 14:26:48;;;;;;;3.28;0.77;;;;;;;18.31;44.61;98708.25;4876364;29;20061;-80
2021/09/30 14:29:15;;;;;;;2.25;0.70;;;;;;;17.59;47.03;98714.25;4860457;29;20075;-79
2021/09/30 14:31:42;;;;;;;1.92;0.50;;;;;;;17.04;47.78;98708.94;4876542;29;20049;-80
2021/09/30 14:34:09;;;;;;;2.10;0.60;;;;;;;16.10;48.03;98704.63;4861187;29;20140;-79
2021/09/30 14:36:35;;;;;;;2.92;0.68;;;;;;;15.80;49.60;98711.09;4859745;29;20045;-80
2021/09/30 14:39:03;;;;;;;1.52;0.60;;;;;;;15.54;50.29;98711.91;4877835;29;20120;-79
2021/09/30 14:41:30;;;;;;;5.93;0.80;;;;;;;15.62;52.32;98710.28;4841223;29;20088;-79
2021/09/30 14:43:57;;;;;;;2.33;0.60;;;;;;;15.58;48.85;98706.63;4852336;29;20129;-79
2021/09/30 14:46:23;;;;;;;1.35;0.50;;;;;;;15.61;51.09;98705.16;4862364;29;20128;-79
2021/09/30 14:48:50;;;;;;;2.85;0.68;;;;;;;15.59;51.25;98705.47;4872992;29;20056;-80
2021/09/30 14:51:17;;;;;;;4.10;0.50;;;;;;;15.56;54.40;98706.13;4872126;29;20075;-81
2021/09/30 14:53:44;;;;;;;1.42;0.70;;;;;;;15.52;52.71;98707.88;4867340;29;20065;-79
2021/09/30 14:56:10;;;;;;;3.67;0.50;;;;;;;15.27;54.99;98700.47;4848021;29;20526;-80
2021/09/30 14:58:37;;;;;;;2.25;0.60;;;;;;;15.13;52.58;98691.59;4845636;29;20470;-80
2021/09/30 15:01:05;;;;;;;1.77;0.60;;;;;;;15.18;51.82;98700.44;4878485;29;20179;-80
2021/09/30 15:03:32;;;;;;;2.38;0.60;;;;;;;15.29;54.25;98699.00;4849338;29;20085;-82
2021/09/30 15:05:59;;;;;;;2.45;0.70;;;;;;;15.35;53.03;98695.00;4849936;29;20056;-80
2021/09/30 15:08:25;;;;;;;4.93;0.60;;;;;;;15.65;53.16;98693.28;4868704;29;20041;-80
2021/09/30 15:10:52;;;;;;;3.75;0.80;;;;;;;15.67;53.93;98688.28;4882147;29;20117;-79
2021/09/30 15:13:18;;;;;;;2.67;0.70;;;;;;;15.50;53.55;98691.03;4880047;29;20045;-81
2021/09/30 15:15:45;;;;;;;7.00;0.93;;;;;;;15.46;54.44;98693.59;4848449;29;20079;-80
2021/09/30 15:18:26;;;;;;;4.05;0.70;;;;;;;15.54;53.43;98694.72;4880325;29;20495;-79
2021/09/30 15:23:38;;;;;;;2.60;0.73;;;;;;;15.56;52.08;98687.03;4867421;29;20541;-80
2021/09/30 15:26:04;;;;;;;4.53;0.63;;;;;;;15.55;53.74;98690.88;4850366;29;20461;-79
2021/09/30 15:28:36;;;;;;;4.63;0.70;;;;;;;15.54;52.70;98689.25;4863585;29;20044;-80